createdAt,value
2023-01-22T00:00:17.066Z,88.53
2023-01-22T00:03:20.036Z,88.55
2023-01-22T00:06:24.024Z,88.38
2023-01-22T00:09:26.782Z,88.37
2023-01-22T00:12:29.827Z,88.74
2023-01-22T00:15:32.246Z,88.70
2023-01-22T00:18:35.329Z,88.75
2023-01-22T00:21:38.229Z,88.60
2023-01-22T00:24:41.072Z,88.50
2023-01-22T00:27:43.855Z,88.79
2023-01-22T00:30:46.577Z,88.39
2023-01-22T00:33:49.244Z,88.81
2023-01-22T00:36:52.012Z,88.99
2023-01-22T00:39:54.683Z,89.26
2023-01-22T00:42:57.499Z,89.08
2023-01-22T00:46:00.437Z,89.00
2023-01-22T00:49:03.897Z,89.38
2023-01-22T00:52:06.524Z,89.27
2023-01-22T00:55:09.473Z,89.34
2023-01-22T00:58:12.137Z,89.07
2023-01-22T01:01:15.944Z,89.36
2023-01-22T01:04:18.731Z,88.91
2023-01-22T01:07:21.678Z,88.87
2023-01-22T01:10:24.199Z,88.60
2023-01-22T01:13:28.111Z,88.73
2023-01-22T01:16:32.019Z,88.88
2023-01-22T01:19:36.099Z,88.65
2023-01-22T01:22:38.845Z,88.78
2023-01-22T01:25:42.547Z,88.50
2023-01-22T01:28:46.554Z,88.28
2023-01-22T01:31:53.515Z,88.24
2023-01-22T01:34:56.466Z,88.02
2023-01-22T01:37:59.216Z,87.92
2023-01-22T01:41:02.084Z,87.89
2023-01-22T01:44:21.436Z,88.25
2023-01-22T01:47:34.474Z,88.40
2023-01-22T01:50:40.678Z,88.13
2023-01-22T01:53:45.903Z,88.29
2023-01-22T01:56:54.588Z,87.89
2023-01-22T01:59:58.796Z,87.90
2023-01-22T02:03:01.805Z,87.90
2023-01-22T02:06:04.665Z,87.67
2023-01-22T02:09:07.780Z,87.84
2023-01-22T02:12:10.395Z,87.82
2023-01-22T02:15:14.392Z,87.86
2023-01-22T02:18:17.256Z,87.32
2023-01-22T02:21:45.054Z,87.14
2023-01-22T02:24:48.367Z,87.09
2023-01-22T02:27:51.194Z,87.27
2023-01-22T02:30:57.059Z,87.10
2023-01-22T02:34:02.429Z,87.31
2023-01-22T02:37:06.679Z,87.05
2023-01-22T02:40:10.340Z,87.22
2023-01-22T02:43:12.835Z,86.67
2023-01-22T02:46:15.694Z,86.25
2023-01-22T02:49:18.350Z,85.95
2023-01-22T02:52:21.918Z,86.21
2023-01-22T02:55:24.633Z,86.09
2023-01-22T02:58:27.909Z,85.72
2023-01-22T03:01:30.815Z,86.31
2023-01-22T03:04:34.224Z,86.48
2023-01-22T03:07:43.133Z,86.50
2023-01-22T03:10:46.293Z,86.67
2023-01-22T03:14:08.440Z,87.05
2023-01-22T03:17:29.721Z,87.28
2023-01-22T03:20:56.269Z,87.26
2023-01-22T03:23:59.030Z,87.13
2023-01-22T03:27:02.169Z,87.11
2023-01-22T03:30:07.931Z,87.17
2023-01-22T03:33:11.131Z,86.79
2023-01-22T03:36:15.557Z,86.65
2023-01-22T03:39:27.084Z,86.91
2023-01-22T03:42:30.411Z,87.36
2023-01-22T03:45:34.105Z,87.43
2023-01-22T03:48:37.552Z,87.38
2023-01-22T03:51:41.099Z,87.73
2023-01-22T03:54:44.712Z,87.71
2023-01-22T03:57:48.113Z,87.76
2023-01-22T04:00:50.967Z,87.94
2023-01-22T04:03:54.101Z,87.73
2023-01-22T04:06:59.712Z,87.94
2023-01-22T04:10:02.424Z,87.23
2023-01-22T04:13:06.686Z,87.44
2023-01-22T04:16:12.018Z,87.61
2023-01-22T04:19:33.355Z,87.29
2023-01-22T04:22:38.577Z,87.54
2023-01-22T04:25:45.644Z,87.64
2023-01-22T04:28:48.639Z,87.71
2023-01-22T04:31:51.582Z,87.42
2023-01-22T04:34:54.421Z,87.36
2023-01-22T04:38:13.333Z,87.56
2023-01-22T04:41:17.612Z,88.31
2023-01-22T04:44:20.661Z,87.69
2023-01-22T04:47:23.136Z,86.91
2023-01-22T04:50:29.335Z,86.67
2023-01-22T04:53:32.883Z,86.63
2023-01-22T04:56:36.641Z,86.43
2023-01-22T04:59:39.318Z,87.04
2023-01-22T05:02:42.439Z,86.72
2023-01-22T05:05:45.252Z,86.84
2023-01-22T05:08:48.759Z,86.52
2023-01-22T05:11:51.903Z,86.90
2023-01-22T05:14:55.089Z,86.57
2023-01-22T05:17:58.496Z,86.47
2023-01-22T05:21:01.926Z,86.92
2023-01-22T05:24:08.481Z,86.51
2023-01-22T05:27:13.214Z,86.15
2023-01-22T05:30:29.864Z,86.45
2023-01-22T05:34:05.481Z,86.13
2023-01-22T05:37:08.245Z,86.39
2023-01-22T05:40:12.322Z,86.48
2023-01-22T05:43:15.216Z,86.62
2023-01-22T05:46:22.474Z,86.48
2023-01-22T05:50:00.984Z,86.56
2023-01-22T05:53:04.088Z,86.16
2023-01-22T05:56:07.325Z,86.63
2023-01-22T05:59:14.952Z,86.39
2023-01-22T06:02:22.816Z,86.59
2023-01-22T06:05:28.181Z,86.84
2023-01-22T06:08:38.482Z,87.03
2023-01-22T06:11:41.827Z,87.14
2023-01-22T06:14:44.565Z,87.14
2023-01-22T06:17:48.797Z,87.51
2023-01-22T06:20:52.170Z,87.73
2023-01-22T06:23:55.829Z,87.81
2023-01-22T06:26:58.398Z,87.71
2023-01-22T06:30:11.172Z,87.72
2023-01-22T06:33:14.139Z,87.52
2023-01-22T06:36:16.981Z,87.63
2023-01-22T06:39:19.894Z,87.78
2023-01-22T06:42:37.168Z,86.88
2023-01-22T06:45:40.023Z,87.40
2023-01-22T06:48:48.086Z,87.00
2023-01-22T06:51:52.152Z,87.17
2023-01-22T06:54:55.230Z,86.81
2023-01-22T06:58:00.678Z,87.18
2023-01-22T07:01:06.342Z,86.93
2023-01-22T07:04:09.272Z,86.49
2023-01-22T07:07:12.616Z,85.79
2023-01-22T07:10:17.275Z,86.44
2023-01-22T07:13:20.641Z,85.89
2023-01-22T07:16:23.561Z,85.70
2023-01-22T07:19:26.416Z,86.31
2023-01-22T07:22:30.732Z,86.38
2023-01-22T07:25:33.795Z,86.83
2023-01-22T07:28:36.278Z,86.64
2023-01-22T07:31:39.428Z,86.85
2023-01-22T07:34:42.380Z,86.99
2023-01-22T07:37:52.243Z,87.13
2023-01-22T07:41:00.002Z,87.48
2023-01-22T07:44:04.016Z,87.42
2023-01-22T07:47:07.016Z,86.63
2023-01-22T07:50:11.792Z,86.21
2023-01-22T07:53:14.297Z,86.82
2023-01-22T07:56:19.400Z,85.10
2023-01-22T07:59:22.275Z,85.94
2023-01-22T08:02:26.160Z,87.24
2023-01-22T08:05:29.016Z,84.58
2023-01-22T08:08:31.865Z,85.32
2023-01-22T08:11:34.547Z,85.33
2023-01-22T08:14:37.238Z,85.67
2023-01-22T08:17:40.114Z,84.64
2023-01-22T08:20:43.044Z,85.17
2023-01-22T08:23:48.911Z,83.20
2023-01-22T08:26:52.348Z,83.13
2023-01-22T08:29:55.355Z,83.19
2023-01-22T08:32:58.411Z,83.84
2023-01-22T08:36:00.817Z,84.10
2023-01-22T08:39:03.973Z,83.44
2023-01-22T08:42:06.405Z,83.39
2023-01-22T08:45:09.714Z,80.52
2023-01-22T08:48:16.400Z,79.53
2023-01-22T08:51:19.481Z,75.44
2023-01-22T08:54:22.026Z,65.76
2023-01-22T08:57:25.029Z,58.78
2023-01-22T09:00:27.617Z,64.07
2023-01-22T09:03:30.704Z,66.55
2023-01-22T09:06:34.222Z,59.94
2023-01-22T09:09:37.038Z,52.94
2023-01-22T09:12:40.552Z,56.71
2023-01-22T09:15:43.403Z,58.15
2023-01-22T09:18:46.292Z,59.78
2023-01-22T09:21:49.491Z,63.96
2023-01-22T09:24:51.973Z,65.57
2023-01-22T09:28:01.164Z,67.47
2023-01-22T09:31:04.462Z,68.21
2023-01-22T09:34:07.292Z,69.80
2023-01-22T09:37:11.642Z,71.07
2023-01-22T09:40:46.780Z,70.52
2023-01-22T09:44:00.363Z,60.71
2023-01-22T09:47:40.476Z,55.76
2023-01-22T09:50:43.946Z,51.33
2023-01-22T09:53:54.588Z,49.75
2023-01-22T09:57:00.388Z,55.92
2023-01-22T10:00:04.361Z,52.77
2023-01-22T10:03:24.908Z,47.21
2023-01-22T10:06:30.094Z,46.74
2023-01-22T10:09:34.596Z,44.55
2023-01-22T10:12:37.285Z,45.35
2023-01-22T10:15:40.090Z,51.62
2023-01-22T10:18:52.199Z,53.93
2023-01-22T10:22:07.070Z,52.35
2023-01-22T10:25:14.818Z,47.88
2023-01-22T10:28:24.771Z,46.86
2023-01-22T10:31:36.539Z,45.71
2023-01-22T10:34:39.138Z,44.96
2023-01-22T10:37:45.789Z,44.03
2023-01-22T10:40:54.611Z,44.42
2023-01-22T10:44:08.652Z,43.05
2023-01-22T10:47:20.571Z,44.25
2023-01-22T10:50:23.604Z,45.46
2023-01-22T10:53:34.370Z,42.41
2023-01-22T10:56:40.859Z,46.31
2023-01-22T10:59:58.249Z,46.34
2023-01-22T11:03:02.124Z,47.42
2023-01-22T11:06:32.869Z,47.46
2023-01-22T11:09:45.019Z,46.77
2023-01-22T11:12:52.405Z,48.39
2023-01-22T11:16:16.593Z,47.91
2023-01-22T11:19:36.571Z,50.00
2023-01-22T11:22:43.653Z,48.94
2023-01-22T11:25:57.300Z,50.01
2023-01-22T11:29:00.519Z,48.79
2023-01-22T11:32:17.893Z,50.65
2023-01-22T11:35:29.908Z,50.53
2023-01-22T11:38:44.178Z,51.94
2023-01-22T11:41:59.022Z,50.37
2023-01-22T11:45:16.765Z,50.84
2023-01-22T11:48:28.672Z,50.61
2023-01-22T11:51:54.684Z,52.84
2023-01-22T11:55:09.017Z,51.92
2023-01-22T11:58:11.669Z,54.36
2023-01-22T12:01:41.908Z,53.91
2023-01-22T12:05:07.281Z,54.15
2023-01-22T12:08:31.789Z,54.08
2023-01-22T12:12:07.267Z,54.61
2023-01-22T12:15:36.915Z,55.31
2023-01-22T12:19:01.184Z,55.77
2023-01-22T12:22:27.870Z,55.85
2023-01-22T12:25:33.322Z,54.09
2023-01-22T12:28:52.240Z,54.42
2023-01-22T12:32:09.226Z,53.71
2023-01-22T12:35:18.864Z,54.10
2023-01-22T12:38:36.413Z,53.64
2023-01-22T12:41:58.102Z,52.23
2023-01-22T12:45:22.623Z,53.67
2023-01-22T12:48:37.593Z,53.04
2023-01-22T12:51:46.114Z,53.84
2023-01-22T12:54:55.010Z,54.69
2023-01-22T12:57:58.693Z,53.18
2023-01-22T13:01:23.628Z,53.75
2023-01-22T13:04:33.654Z,52.10
2023-01-22T13:07:38.142Z,51.16
2023-01-22T13:10:55.512Z,50.65
2023-01-22T13:14:16.885Z,49.40
2023-01-22T13:17:23.522Z,51.29
2023-01-22T13:20:27.464Z,53.13
2023-01-22T13:23:36.313Z,52.24
2023-01-22T13:26:39.662Z,53.09
2023-01-22T13:29:42.762Z,52.64
2023-01-22T13:32:45.479Z,52.18
2023-01-22T13:35:48.162Z,53.57
2023-01-22T13:38:57.661Z,53.39
2023-01-22T13:42:02.938Z,54.41
2023-01-22T13:45:06.545Z,54.78
2023-01-22T13:48:15.986Z,56.47
2023-01-22T13:51:20.997Z,56.25
2023-01-22T13:54:40.048Z,56.71
2023-01-22T13:57:48.023Z,57.85
2023-01-22T14:00:52.690Z,57.54
2023-01-22T14:04:24.424Z,58.53
2023-01-22T14:07:35.647Z,58.44
2023-01-22T14:10:42.295Z,58.91
2023-01-22T14:13:46.902Z,59.62
2023-01-22T14:16:50.237Z,59.59
2023-01-22T14:19:53.322Z,60.54
2023-01-22T14:22:56.490Z,60.57
2023-01-22T14:26:07.005Z,60.66
2023-01-22T14:29:10.171Z,61.78
2023-01-22T14:32:12.618Z,61.73
2023-01-22T14:35:18.217Z,63.35
2023-01-22T14:38:21.661Z,63.58
2023-01-22T14:41:25.172Z,63.62
2023-01-22T14:44:28.065Z,65.29
2023-01-22T14:47:31.000Z,65.03
2023-01-22T14:50:33.944Z,65.62
2023-01-22T14:53:36.870Z,66.69
2023-01-22T14:56:39.658Z,67.54
2023-01-22T14:59:42.468Z,68.77
2023-01-22T15:02:45.211Z,69.85
2023-01-22T15:05:52.248Z,71.26
2023-01-22T15:08:55.114Z,72.02
2023-01-22T15:11:58.473Z,72.81
2023-01-22T15:15:01.900Z,73.19
2023-01-22T15:18:05.570Z,73.30
2023-01-22T15:21:08.303Z,75.24
2023-01-22T15:24:11.440Z,76.67
2023-01-22T15:27:18.553Z,76.44
2023-01-22T15:30:21.767Z,76.58
2023-01-22T15:33:25.025Z,76.46
2023-01-22T15:36:32.214Z,76.33
2023-01-22T15:39:34.767Z,75.97
2023-01-22T15:42:37.508Z,76.85
2023-01-22T15:45:39.926Z,77.18
2023-01-22T15:48:42.905Z,77.00
2023-01-22T15:51:45.704Z,77.69
2023-01-22T15:54:48.950Z,78.10
2023-01-22T15:57:51.800Z,78.41
2023-01-22T16:00:57.172Z,78.45
2023-01-22T16:04:03.946Z,78.46
2023-01-22T16:07:06.702Z,79.50
2023-01-22T16:10:10.349Z,79.21
2023-01-22T16:13:13.125Z,79.31
2023-01-22T16:16:23.243Z,79.21
2023-01-22T16:19:26.366Z,81.02
2023-01-22T16:22:29.037Z,81.59
2023-01-22T16:25:32.363Z,81.09
2023-01-22T16:28:36.658Z,80.91
2023-01-22T16:31:39.740Z,80.80
2023-01-22T16:34:42.636Z,81.22
2023-01-22T16:37:45.512Z,81.21
2023-01-22T16:40:48.517Z,80.81
2023-01-22T16:44:09.234Z,80.40
2023-01-22T16:47:12.138Z,80.93
2023-01-22T16:50:17.945Z,81.32
2023-01-22T16:53:20.969Z,82.41
2023-01-22T16:56:24.026Z,82.88
2023-01-22T16:59:27.804Z,82.95
2023-01-22T17:02:31.626Z,82.64
2023-01-22T17:05:34.466Z,82.28
2023-01-22T17:08:37.861Z,82.17
2023-01-22T17:11:42.500Z,82.34
2023-01-22T17:14:46.576Z,82.45
2023-01-22T17:17:49.315Z,82.45
2023-01-22T17:21:01.948Z,83.41
2023-01-22T17:24:05.324Z,82.73
2023-01-22T17:27:08.332Z,82.83
2023-01-22T17:30:12.124Z,82.70
2023-01-22T17:33:17.100Z,83.23
2023-01-22T17:36:20.212Z,83.54
2023-01-22T17:39:24.469Z,83.32
2023-01-22T17:42:27.281Z,83.75
2023-01-22T17:45:30.189Z,83.52
2023-01-22T17:48:33.016Z,83.25
2023-01-22T17:51:36.541Z,83.09
2023-01-22T17:54:40.156Z,83.57
2023-01-22T17:57:43.253Z,83.82
2023-01-22T18:00:48.805Z,84.38
2023-01-22T18:03:52.117Z,84.74
2023-01-22T18:06:54.969Z,85.10
2023-01-22T18:09:58.621Z,85.42
2023-01-22T18:13:01.592Z,85.94
2023-01-22T18:16:10.398Z,85.61
2023-01-22T18:19:13.745Z,85.47
2023-01-22T18:22:17.268Z,85.83
2023-01-22T18:25:20.430Z,85.46
2023-01-22T18:28:26.004Z,85.24
2023-01-22T18:31:29.593Z,85.86
2023-01-22T18:34:32.614Z,85.96
2023-01-22T18:37:37.485Z,86.25
2023-01-22T18:40:41.444Z,86.37
2023-01-22T18:43:47.685Z,86.56
2023-01-22T18:46:52.592Z,86.14
2023-01-22T18:49:55.309Z,86.59
2023-01-22T18:52:58.349Z,87.18
2023-01-22T18:56:02.579Z,87.15
2023-01-22T18:59:06.074Z,87.01
2023-01-22T19:02:16.111Z,87.12
2023-01-22T19:05:19.494Z,87.16
2023-01-22T19:08:22.951Z,86.65
2023-01-22T19:11:25.914Z,87.07
2023-01-22T19:14:28.804Z,86.93
2023-01-22T19:17:31.715Z,86.81
2023-01-22T19:20:36.849Z,87.03
2023-01-22T19:23:41.237Z,87.10
2023-01-22T19:26:46.659Z,87.32
2023-01-22T19:29:50.052Z,87.41
2023-01-22T19:32:54.696Z,87.19
2023-01-22T19:35:58.562Z,88.00
2023-01-22T19:39:04.270Z,87.61
2023-01-22T19:42:07.797Z,88.08
2023-01-22T19:45:10.531Z,88.05
2023-01-22T19:48:13.272Z,87.92
2023-01-22T19:51:17.548Z,88.14
2023-01-22T19:54:20.800Z,88.23
2023-01-22T19:57:24.078Z,87.76
2023-01-22T20:00:27.208Z,87.95
2023-01-22T20:03:30.266Z,88.40
2023-01-22T20:06:33.149Z,88.57
2023-01-22T20:09:37.280Z,89.36
2023-01-22T20:12:41.025Z,89.09
2023-01-22T20:15:44.056Z,88.76
2023-01-22T20:18:48.237Z,88.98
2023-01-22T20:21:51.049Z,88.99
2023-01-22T20:24:54.374Z,89.20
2023-01-22T20:27:59.668Z,89.08
2023-01-22T20:31:07.923Z,88.63
2023-01-22T20:34:11.021Z,88.99
2023-01-22T20:37:13.757Z,89.34
2023-01-22T20:40:16.802Z,89.39
2023-01-22T20:43:20.903Z,89.45
2023-01-22T20:46:25.790Z,89.61
2023-01-22T20:49:29.437Z,89.39
2023-01-22T20:52:32.477Z,89.32
2023-01-22T20:55:35.944Z,89.13
2023-01-22T20:58:38.446Z,88.98
2023-01-22T21:01:41.964Z,88.90
2023-01-22T21:04:45.026Z,89.56
2023-01-22T21:07:47.977Z,89.38
2023-01-22T21:11:02.407Z,89.34
2023-01-22T21:14:05.967Z,89.34
2023-01-22T21:17:08.925Z,89.39
2023-01-22T21:20:12.378Z,89.59
2023-01-22T21:23:16.731Z,89.87
2023-01-22T21:26:24.992Z,89.74
2023-01-22T21:29:27.949Z,90.03
2023-01-22T21:32:30.894Z,89.36
2023-01-22T21:35:33.498Z,89.53
2023-01-22T21:38:37.117Z,89.71
2023-01-22T21:41:40.367Z,89.43
2023-01-22T21:45:02.734Z,89.75
2023-01-22T21:48:05.461Z,89.76
2023-01-22T21:51:08.547Z,89.98
2023-01-22T21:54:12.575Z,89.88
2023-01-22T21:57:16.664Z,89.85
2023-01-22T22:00:22.042Z,89.93
2023-01-22T22:03:24.892Z,89.89
2023-01-22T22:06:29.805Z,89.80
2023-01-22T22:09:32.534Z,90.08
2023-01-22T22:12:35.304Z,89.71
2023-01-22T22:15:39.227Z,90.29
2023-01-22T22:18:41.765Z,90.60
2023-01-22T22:21:44.983Z,90.31
2023-01-22T22:24:47.489Z,90.52
2023-01-22T22:27:50.397Z,90.34
2023-01-22T22:30:52.968Z,90.44
2023-01-22T22:33:56.975Z,90.08
2023-01-22T22:36:59.622Z,90.18
2023-01-22T22:40:02.359Z,90.13
2023-01-22T22:43:05.130Z,90.06
2023-01-22T22:46:13.651Z,90.37
2023-01-22T22:49:16.296Z,90.48
2023-01-22T22:52:19.173Z,90.00
2023-01-22T22:55:21.554Z,89.94
2023-01-22T22:58:24.449Z,90.22
2023-01-22T23:01:28.181Z,90.39
2023-01-22T23:04:31.197Z,90.27
2023-01-22T23:07:33.877Z,90.45
2023-01-22T23:10:38.453Z,90.47
2023-01-22T23:13:44.851Z,89.88
2023-01-22T23:16:48.008Z,90.38
2023-01-22T23:19:50.913Z,90.36
2023-01-22T23:22:55.922Z,90.31
2023-01-22T23:25:58.631Z,90.29
2023-01-22T23:29:06.828Z,90.15
2023-01-22T23:32:09.525Z,90.45
2023-01-22T23:35:12.499Z,89.81
2023-01-22T23:38:15.110Z,90.34
2023-01-22T23:41:19.821Z,90.23
2023-01-22T23:44:22.691Z,90.30
2023-01-22T23:47:27.339Z,89.96
2023-01-22T23:50:30.208Z,90.11
2023-01-22T23:53:40.144Z,90.12
2023-01-22T23:56:42.724Z,90.26
2023-01-22T23:59:48.889Z,90.60
